Time;durP1;ratioP1;P1;durP2;ratioP2;P2;SDS_P1;SDS_P2;PMS_P1;PMS_P2;Temp;Humidity;BMP_temperature;BMP_pressure;BME280_temperature;BME280_humidity;BME280_pressure;Samples;Min_cycle;Max_cycle;Signal;HPM_P1;HPM_P2
2022/08/15 00:02:06;;;;;;;0.15;0.15;;;29.50;56.40;;;;;;3954900;29;20047;-69
2022/08/15 00:04:50;;;;;;;0.10;0.10;;;29.50;56.50;;;;;;3954870;29;20051;-69
2022/08/15 00:07:12;;;;;;;0.00;0.00;;;29.50;56.30;;;;;;3941319;30;20133;-69
2022/08/15 00:09:38;;;;;;;0.00;0.00;;;29.50;56.40;;;;;;3955478;29;20147;-69
2022/08/15 00:12:17;;;;;;;0.00;0.00;;;29.40;56.20;;;;;;3940780;30;20051;-69
2022/08/15 00:14:52;;;;;;;1.08;0.65;;;29.40;56.20;;;;;;3955139;29;20059;-69
2022/08/15 00:17:14;;;;;;;0.70;0.70;;;29.40;57.10;;;;;;3954290;30;20140;-69
2022/08/15 00:19:38;;;;;;;0.25;0.25;;;29.40;56.40;;;;;;3941377;30;20469;-69
2022/08/15 00:22:06;;;;;;;0.00;0.00;;;29.40;56.30;;;;;;3940927;29;20106;-69
2022/08/15 00:24:39;;;;;;;0.00;0.00;;;29.40;56.30;;;;;;3955032;29;20065;-69
2022/08/15 00:27:04;;;;;;;0.30;0.30;;;29.40;56.30;;;;;;3954801;29;20526;-69
2022/08/15 00:29:32;;;;;;;0.00;0.00;;;29.40;56.40;;;;;;3957381;29;20059;-69
2022/08/15 00:32:00;;;;;;;0.30;0.30;;;29.40;56.60;;;;;;3942976;30;20480;-69
2022/08/15 00:34:23;;;;;;;1.00;0.95;;;29.40;56.70;;;;;;3928629;30;20071;-69
2022/08/15 00:37:03;;;;;;;1.77;0.85;;;29.30;56.50;;;;;;3928500;30;20051;-69
2022/08/15 00:39:28;;;;;;;0.52;0.52;;;29.30;56.60;;;;;;3942268;30;20583;-70
2022/08/15 00:41:58;;;;;;;0.03;0.03;;;29.30;56.70;;;;;;3928593;30;20179;-69
2022/08/15 00:44:23;;;;;;;0.65;0.65;;;29.30;56.70;;;;;;3942543;30;20064;-69
2022/08/15 00:47:09;;;;;;;0.00;0.00;;;29.30;56.80;;;;;;3934077;30;20048;-69
2022/08/15 00:49:35;;;;;;;0.10;0.10;;;29.30;56.70;;;;;;3943074;30;20131;-68
2022/08/15 00:52:23;;;;;;;0.00;0.00;;;29.30;56.80;;;;;;3942180;30;20496;-69
2022/08/15 00:54:53;;;;;;;0.10;0.10;;;29.30;56.70;;;;;;3942245;30;20056;-69
2022/08/15 00:57:21;;;;;;;;;;;29.30;56.40;;;;;;3941830;30;20138;-69
2022/08/15 00:59:52;;;;;;;0.00;0.00;;;29.30;56.70;;;;;;3929983;30;20080;-69
2022/08/15 01:02:19;;;;;;;0.68;0.68;;;29.30;56.70;;;;;;3956632;29;20508;-70
2022/08/15 01:04:42;;;;;;;0.00;0.00;;;29.20;56.00;;;;;;3928126;30;20207;-69
2022/08/15 01:07:05;;;;;;;0.00;0.00;;;29.20;56.50;;;;;;3941947;30;20424;-69
2022/08/15 01:09:29;;;;;;;3.50;0.35;;;29.20;56.80;;;;;;3942304;30;20128;-70
2022/08/15 01:11:57;;;;;;;0.00;0.00;;;29.20;56.70;;;;;;3941887;30;20055;-70
2022/08/15 01:14:20;;;;;;;0.00;0.00;;;29.20;56.50;;;;;;3928686;30;20059;-70
2022/08/15 01:17:03;;;;;;;0.00;0.00;;;29.20;56.60;;;;;;3955760;30;20700;-70
2022/08/15 01:19:28;;;;;;;0.20;0.20;;;29.20;56.80;;;;;;3942269;30;20163;-69
2022/08/15 01:22:23;;;;;;;0.00;0.00;;;29.10;56.80;;;;;;3912644;30;20477;-70
2022/08/15 01:24:56;;;;;;;0.52;0.52;;;29.10;56.80;;;;;;3898760;30;20148;-69
2022/08/15 01:27:42;;;;;;;0.82;0.80;;;29.20;56.70;;;;;;3898796;30;20107;-70
2022/08/15 01:30:07;;;;;;;0.65;0.65;;;29.10;56.70;;;;;;3919032;30;20117;-69
2022/08/15 01:32:42;;;;;;;0.82;0.82;;;29.10;56.70;;;;;;3913390;30;20079;-69
2022/08/15 01:35:05;;;;;;;0.57;0.57;;;29.10;56.70;;;;;;3925315;30;20530;-69
2022/08/15 01:37:28;;;;;;;1.27;1.17;;;29.10;56.80;;;;;;3913180;30;20144;-69
2022/08/15 01:40:20;;;;;;;0.40;0.40;;;29.10;56.80;;;;;;3901577;30;20131;-69
2022/08/15 01:43:03;;;;;;;1.33;1.33;;;29.10;56.70;;;;;;3912869;30;20122;-66
2022/08/15 01:45:30;;;;;;;1.00;0.82;;;29.10;56.50;;;;;;3912969;30;20075;-65
2022/08/15 01:48:06;;;;;;;1.23;0.98;;;29.00;56.50;;;;;;3912422;30;20052;-66
2022/08/15 01:50:47;;;;;;;3.45;1.08;;;29.00;56.60;;;;;;3913611;30;20139;-66
2022/08/15 01:53:15;;;;;;;0.20;0.20;;;29.00;56.60;;;;;;3900945;30;20591;-65
2022/08/15 01:55:52;;;;;;;0.00;0.00;;;29.00;56.40;;;;;;3926177;30;20055;-65
2022/08/15 01:58:20;;;;;;;0.32;0.32;;;29.00;56.60;;;;;;3912720;30;20100;-65
2022/08/15 02:00:51;;;;;;;1.17;1.15;;;29.00;56.80;;;;;;3913539;30;20139;-67
2022/08/15 02:03:14;;;;;;;0.28;0.28;;;29.00;56.80;;;;;;3926662;30;20063;-65
2022/08/15 02:05:41;;;;;;;0.15;0.15;;;29.00;56.80;;;;;;3912845;30;20135;-66
2022/08/15 02:08:03;;;;;;;0.15;0.15;;;28.90;56.80;;;;;;3900795;30;20078;-66
2022/08/15 02:10:47;;;;;;;0.20;0.20;;;29.00;56.80;;;;;;3898501;30;20470;-66
2022/08/15 02:13:09;;;;;;;0.00;0.00;;;28.90;57.50;;;;;;3898461;30;20127;-67
2022/08/15 02:15:36;;;;;;;1.10;0.55;;;28.90;56.70;;;;;;3898908;30;20053;-66
2022/08/15 02:17:59;;;;;;;3.25;0.55;;;29.00;56.80;;;;;;3914188;30;20439;-67
2022/08/15 02:20:23;;;;;;;0.45;0.45;;;29.00;56.70;;;;;;3924416;30;20548;-66
2022/08/15 02:22:47;;;;;;;0.13;0.13;;;28.90;56.20;;;;;;3955837;30;20070;-67
2022/08/15 02:25:10;;;;;;;0.20;0.20;;;28.90;56.60;;;;;;3942338;30;20105;-66
2022/08/15 02:27:38;;;;;;;0.15;0.15;;;28.90;56.80;;;;;;3940825;30;20047;-66
2022/08/15 02:30:06;;;;;;;0.00;0.00;;;28.90;56.70;;;;;;3927114;30;20584;-67
2022/08/15 02:32:28;;;;;;;0.13;0.13;;;28.90;56.50;;;;;;3927481;30;20133;-66
2022/08/15 02:34:52;;;;;;;2.40;1.20;;;28.90;56.50;;;;;;3939483;30;20404;-66
2022/08/15 02:37:18;;;;;;;0.20;0.20;;;28.90;56.60;;;;;;3941595;30;20089;-65
2022/08/15 02:39:44;;;;;;;1.10;0.45;;;28.80;56.50;;;;;;3941704;30;20109;-65
2022/08/15 02:42:06;;;;;;;0.08;0.08;;;28.80;56.50;;;;;;3929073;30;20055;-65
2022/08/15 02:44:30;;;;;;;0.25;0.25;;;28.80;56.70;;;;;;3941487;30;20184;-65
2022/08/15 02:46:56;;;;;;;0.00;0.00;;;28.80;56.70;;;;;;3942033;30;20938;-65
2022/08/15 02:49:24;;;;;;;0.47;0.43;;;28.80;56.80;;;;;;3955439;29;20055;-65
2022/08/15 02:51:48;;;;;;;0.28;0.28;;;28.80;56.70;;;;;;3940944;30;20048;-65
2022/08/15 02:54:19;;;;;;;0.40;0.40;;;28.80;56.70;;;;;;3941571;30;20453;-65
2022/08/15 02:56:56;;;;;;;0.05;0.05;;;28.80;56.80;;;;;;3941554;30;20051;-65
2022/08/15 02:59:21;;;;;;;0.52;0.52;;;28.80;56.80;;;;;;3942044;30;20051;-65
2022/08/15 03:01:45;;;;;;;1.25;0.88;;;28.80;56.80;;;;;;3942143;29;20051;-66
2022/08/15 03:04:11;;;;;;;1.00;1.00;;;28.80;56.80;;;;;;3941735;30;20540;-65
2022/08/15 03:06:37;;;;;;;0.88;0.88;;;28.80;56.80;;;;;;3941784;29;20222;-65
2022/08/15 03:09:07;;;;;;;0.03;0.03;;;28.70;56.80;;;;;;3941240;30;20074;-66
2022/08/15 03:11:38;;;;;;;0.30;0.30;;;28.80;56.90;;;;;;3941634;30;20138;-66
2022/08/15 03:14:01;;;;;;;0.05;0.05;;;28.70;56.60;;;;;;3941749;30;20052;-66
2022/08/15 03:16:25;;;;;;;0.77;0.77;;;28.70;56.70;;;;;;3955030;30;20066;-66
2022/08/15 03:18:49;;;;;;;0.52;0.25;;;28.70;56.70;;;;;;3941631;30;20058;-65
2022/08/15 03:21:19;;;;;;;0.52;0.52;;;28.70;57.50;;;;;;3928817;30;20561;-65
2022/08/15 03:23:49;;;;;;;0.20;0.20;;;28.70;56.80;;;;;;3941155;30;20128;-66
2022/08/15 03:26:12;;;;;;;1.23;1.23;;;28.70;57.00;;;;;;3941205;30;20060;-67
2022/08/15 03:28:46;;;;;;;0.05;0.05;;;28.70;57.60;;;;;;3941770;30;20588;-66
2022/08/15 03:31:22;;;;;;;0.00;0.00;;;28.70;56.90;;;;;;3955034;30;20507;-68
2022/08/15 03:33:46;;;;;;;0.05;0.05;;;28.70;56.90;;;;;;3954949;30;20055;-66
2022/08/15 03:36:21;;;;;;;1.90;0.57;;;28.70;56.90;;;;;;3954970;29;20108;-65
2022/08/15 03:38:45;;;;;;;0.00;0.00;;;28.60;56.90;;;;;;3941862;30;20652;-66
2022/08/15 03:41:13;;;;;;;0.20;0.20;;;28.70;57.00;;;;;;3941283;30;20052;-65
2022/08/15 03:43:38;;;;;;;0.25;0.25;;;28.60;56.90;;;;;;3927867;30;20492;-65
2022/08/15 03:46:05;;;;;;;0.10;0.10;;;28.70;57.70;;;;;;3927382;30;20150;-65
2022/08/15 03:48:30;;;;;;;0.47;0.47;;;28.70;57.00;;;;;;3926670;30;20156;-65
2022/08/15 03:50:54;;;;;;;0.38;0.38;;;28.70;57.00;;;;;;3926846;30;20587;-65
2022/08/15 03:53:21;;;;;;;0.28;0.28;;;28.60;56.90;;;;;;3940422;29;20058;-65
2022/08/15 03:55:44;;;;;;;1.02;0.88;;;28.60;57.00;;;;;;3941660;29;20546;-65
2022/08/15 03:58:15;;;;;;;0.08;0.08;;;28.60;56.90;;;;;;3928508;30;20087;-66
2022/08/15 04:00:53;;;;;;;0.10;0.10;;;28.70;57.10;;;;;;3941404;30;20063;-66
2022/08/15 04:03:20;;;;;;;0.43;0.43;;;28.60;57.00;;;;;;3942799;29;20133;-66
2022/08/15 04:05:49;;;;;;;0.00;0.00;;;28.60;57.00;;;;;;3944211;30;20071;-67
2022/08/15 04:08:13;;;;;;;1.45;1.00;;;28.60;57.10;;;;;;3944060;30;20442;-65
2022/08/15 04:11:01;;;;;;;0.20;0.20;;;28.60;57.20;;;;;;3944289;30;20058;-65
2022/08/15 04:13:25;;;;;;;0.90;0.90;;;28.60;57.10;;;;;;3938607;30;20082;-65
2022/08/15 04:15:49;;;;;;;0.28;0.28;;;28.60;57.20;;;;;;3958185;30;20085;-66
2022/08/15 04:18:28;;;;;;;0.55;0.55;;;28.60;57.30;;;;;;3943634;30;20062;-66
2022/08/15 04:21:06;;;;;;;0.00;0.00;;;28.60;57.40;;;;;;3943841;30;20693;-68
2022/08/15 04:23:29;;;;;;;0.35;0.28;;;28.50;57.30;;;;;;3916616;30;20056;-68
2022/08/15 04:25:55;;;;;;;0.10;0.10;;;28.50;58.00;;;;;;3929622;30;20110;-68
2022/08/15 04:28:25;;;;;;;0.00;0.00;;;28.50;57.30;;;;;;3937270;29;20066;-68
2022/08/15 04:30:52;;;;;;;0.05;0.05;;;28.50;57.30;;;;;;3943422;30;20064;-68
2022/08/15 04:33:18;;;;;;;0.30;0.30;;;28.50;57.30;;;;;;3944000;30;20082;-68
2022/08/15 04:35:50;;;;;;;0.10;0.10;;;28.50;57.30;;;;;;3943814;29;20565;-68
2022/08/15 04:38:14;;;;;;;1.13;0.85;;;28.50;57.30;;;;;;3944049;30;20170;-68
2022/08/15 04:40:39;;;;;;;0.10;0.10;;;28.50;57.40;;;;;;3943887;30;20052;-68
2022/08/15 04:43:23;;;;;;;0.38;0.38;;;28.50;57.40;;;;;;3943512;30;20055;-68
2022/08/15 04:45:48;;;;;;;0.55;0.38;;;28.50;57.40;;;;;;3943521;29;20067;-68
2022/08/15 04:48:14;;;;;;;0.45;0.45;;;28.50;57.40;;;;;;3942294;30;20127;-67
2022/08/15 04:50:42;;;;;;;0.57;0.33;;;28.50;57.40;;;;;;3929086;30;20052;-68
2022/08/15 04:53:09;;;;;;;0.60;0.60;;;28.50;57.40;;;;;;3943218;30;20148;-69
2022/08/15 04:55:32;;;;;;;0.57;0.57;;;28.40;57.50;;;;;;3943854;30;20569;-67
2022/08/15 04:58:07;;;;;;;0.00;0.00;;;28.40;57.80;;;;;;3943273;30;20058;-67
2022/08/15 05:00:57;;;;;;;0.00;0.00;;;28.50;58.00;;;;;;3942769;30;20062;-67
2022/08/15 05:03:31;;;;;;;0.60;0.60;;;28.50;57.90;;;;;;3941984;30;20048;-67
2022/08/15 05:05:56;;;;;;;0.08;0.08;;;28.50;57.90;;;;;;3942097;30;20412;-68
2022/08/15 05:08:22;;;;;;;0.82;0.80;;;28.50;57.80;;;;;;3928768;30;20044;-67
2022/08/15 05:10:51;;;;;;;0.40;0.35;;;28.50;57.70;;;;;;3928670;30;20074;-68
2022/08/15 05:13:15;;;;;;;0.65;0.65;;;28.50;57.70;;;;;;3928422;29;20060;-68
2022/08/15 05:15:40;;;;;;;0.30;0.30;;;28.50;57.70;;;;;;3942697;30;20056;-68
2022/08/15 05:18:06;;;;;;;0.10;0.10;;;28.50;57.60;;;;;;3943040;30;20225;-68
2022/08/15 05:20:32;;;;;;;0.38;0.38;;;28.50;57.60;;;;;;3955318;29;20055;-68
2022/08/15 05:22:56;;;;;;;0.00;0.00;;;28.50;57.60;;;;;;3943295;30;20116;-68
2022/08/15 05:25:22;;;;;;;0.90;0.45;;;28.50;57.60;;;;;;3927985;30;20125;-69
2022/08/15 05:27:47;;;;;;;0.00;0.00;;;28.50;57.60;;;;;;3942664;30;20525;-67
2022/08/15 05:30:11;;;;;;;0.00;0.00;;;28.50;57.60;;;;;;3942075;30;20089;-69
2022/08/15 05:32:34;;;;;;;0.55;0.55;;;28.50;57.60;;;;;;3940394;30;20828;-63
2022/08/15 05:34:57;;;;;;;0.00;0.00;;;28.50;57.60;;;;;;3928451;30;20118;-63
2022/08/15 05:37:20;;;;;;;0.10;0.10;;;28.40;58.20;;;;;;3941542;30;20062;-63
2022/08/15 05:39:45;;;;;;;0.00;0.00;;;28.50;57.60;;;;;;3928387;30;20209;-64
2022/08/15 05:42:16;;;;;;;0.00;0.00;;;28.50;57.60;;;;;;3927905;30;20413;-64
2022/08/15 05:45:02;;;;;;;0.60;0.60;;;28.40;57.50;;;;;;3928008;30;20056;-63
2022/08/15 05:47:33;;;;;;;0.00;0.00;;;28.40;57.60;;;;;;3928179;30;20500;-63
2022/08/15 05:50:06;;;;;;;0.00;0.00;;;28.40;57.60;;;;;;3928420;30;20425;-64
2022/08/15 05:52:35;;;;;;;0.47;0.47;;;28.40;57.60;;;;;;3928351;30;20121;-63
2022/08/15 05:55:13;;;;;;;0.00;0.00;;;28.40;57.60;;;;;;3927783;30;20110;-63
2022/08/15 05:57:46;;;;;;;1.50;1.42;;;28.40;57.60;;;;;;3928085;30;20142;-68
2022/08/15 06:00:13;;;;;;;0.45;0.45;;;28.50;57.60;;;;;;3927532;30;20086;-68
2022/08/15 06:02:46;;;;;;;0.15;0.15;;;28.40;57.60;;;;;;3915448;30;20586;-63
2022/08/15 06:05:17;;;;;;;0.00;0.00;;;28.40;57.60;;;;;;3927370;30;20167;-63
2022/08/15 06:07:40;;;;;;;0.20;0.20;;;28.40;57.60;;;;;;3927368;30;20064;-64
2022/08/15 06:10:25;;;;;;;0.20;0.20;;;28.40;57.60;;;;;;3927877;30;20106;-64
2022/08/15 06:13:04;;;;;;;0.25;0.25;;;28.40;57.60;;;;;;3941909;30;20056;-63
2022/08/15 06:15:31;;;;;;;0.10;0.10;;;28.40;57.60;;;;;;3942217;29;20110;-63
2022/08/15 06:17:58;;;;;;;0.80;0.80;;;28.40;57.60;;;;;;3942502;30;20416;-63
2022/08/15 06:20:27;;;;;;;0.28;0.28;;;28.40;57.60;;;;;;3927627;30;20170;-63
2022/08/15 06:22:56;;;;;;;;;;;28.40;57.60;;;;;;3940293;30;20052;-63
2022/08/15 06:25:26;;;;;;;0.00;0.00;;;28.40;57.60;;;;;;3939445;30;19983;-63
2022/08/15 06:28:08;;;;;;;0.80;0.80;;;28.30;57.90;;;;;;3926876;30;20055;-63
2022/08/15 06:30:58;;;;;;;0.43;0.43;;;28.30;58.10;;;;;;3924735;30;20204;-62
2022/08/15 06:33:34;;;;;;;3.00;1.58;;;28.30;58.90;;;;;;3932343;30;20113;-62
2022/08/15 06:36:21;;;;;;;0.63;0.63;;;28.30;58.20;;;;;;3939655;30;20136;-62
2022/08/15 06:38:52;;;;;;;4.85;1.55;;;28.30;58.20;;;;;;3939416;30;20500;-62
2022/08/15 06:41:22;;;;;;;0.20;0.20;;;28.20;58.20;;;;;;3939781;30;20062;-62
2022/08/15 06:43:48;;;;;;;0.55;0.55;;;28.20;58.50;;;;;;3939948;30;20170;-62
2022/08/15 06:46:21;;;;;;;0.88;0.43;;;28.20;58.20;;;;;;3927100;30;20529;-62
2022/08/15 06:49:04;;;;;;;0.35;0.35;;;28.20;58.30;;;;;;3940057;30;20066;-63
2022/08/15 06:51:38;;;;;;;0.85;0.85;;;28.20;58.30;;;;;;3927400;30;20140;-63
2022/08/15 06:54:12;;;;;;;0.75;0.75;;;28.20;58.30;;;;;;3939484;30;20455;-63
2022/08/15 06:56:56;;;;;;;0.10;0.10;;;28.20;58.30;;;;;;3933613;30;20051;-66
2022/08/15 06:59:25;;;;;;;0.10;0.10;;;28.30;58.40;;;;;;3924838;30;20528;-66
2022/08/15 07:02:04;;;;;;;0.40;0.30;;;28.30;58.40;;;;;;3939055;30;20051;-68
2022/08/15 07:04:44;;;;;;;1.55;1.45;;;28.30;58.50;;;;;;3937486;30;20400;-66
2022/08/15 07:07:16;;;;;;;0.68;0.68;;;28.30;58.50;;;;;;3938421;30;20768;-67
2022/08/15 07:09:51;;;;;;;0.00;0.00;;;28.30;58.50;;;;;;3938688;30;20134;-67
2022/08/15 07:12:22;;;;;;;0.32;0.32;;;28.40;58.50;;;;;;3939056;30;20055;-67
2022/08/15 07:15:01;;;;;;;0.32;0.30;;;28.40;58.50;;;;;;3938690;30;20056;-66
2022/08/15 07:17:30;;;;;;;2.30;1.23;;;28.40;58.50;;;;;;3938682;30;20512;-66
2022/08/15 07:19:54;;;;;;;0.73;0.73;;;28.40;58.50;;;;;;3935014;30;20476;-67
2022/08/15 07:22:30;;;;;;;0.00;0.00;;;28.40;58.50;;;;;;3935352;30;20198;-66
2022/08/15 07:24:57;;;;;;;4.47;1.58;;;28.50;58.50;;;;;;3937284;30;20067;-67
2022/08/15 07:27:28;;;;;;;0.38;0.38;;;28.50;59.10;;;;;;3940201;29;20070;-66
2022/08/15 07:29:58;;;;;;;6.60;1.88;;;28.50;58.30;;;;;;3939228;30;20488;-66
2022/08/15 07:32:26;;;;;;;0.10;0.10;;;28.60;58.30;;;;;;3925066;30;20117;-66
2022/08/15 07:34:58;;;;;;;0.30;0.30;;;28.50;58.10;;;;;;3926733;30;20062;-66
2022/08/15 07:37:26;;;;;;;0.08;0.08;;;28.60;58.10;;;;;;3927348;30;20074;-66
2022/08/15 07:39:59;;;;;;;0.38;0.38;;;28.60;58.10;;;;;;3942252;30;20060;-66
2022/08/15 07:42:22;;;;;;;0.40;0.40;;;28.60;58.10;;;;;;3929763;30;20062;-66
2022/08/15 07:44:57;;;;;;;3.08;1.17;;;28.50;58.10;;;;;;3942476;30;20058;-66
2022/08/15 07:47:25;;;;;;;1.13;0.98;;;28.50;58.00;;;;;;3941681;30;20526;-66
2022/08/15 07:49:59;;;;;;;0.60;0.60;;;28.50;58.10;;;;;;3941558;30;20134;-67
2022/08/15 07:52:24;;;;;;;0.20;0.20;;;28.50;58.00;;;;;;3941360;30;20063;-66
2022/08/15 07:55:16;;;;;;;0.00;0.00;;;28.50;57.90;;;;;;3941543;30;20467;-66
2022/08/15 07:58:02;;;;;;;0.15;0.15;;;28.50;57.80;;;;;;3938888;30;20112;-66
2022/08/15 08:00:27;;;;;;;0.00;0.00;;;28.50;57.60;;;;;;3941145;30;20057;-66
2022/08/15 08:03:04;;;;;;;0.00;0.00;;;28.50;57.50;;;;;;3942613;30;20118;-66
2022/08/15 08:05:31;;;;;;;0.00;0.00;;;28.40;57.30;;;;;;3928700;30;20137;-66
2022/08/15 08:08:09;;;;;;;0.00;0.00;;;28.40;58.00;;;;;;3936107;30;20051;-66
2022/08/15 08:10:59;;;;;;;0.65;0.65;;;28.40;57.30;;;;;;3939559;30;20488;-66
2022/08/15 08:13:39;;;;;;;0.13;0.13;;;28.40;57.30;;;;;;3941157;30;20750;-66
2022/08/15 08:16:12;;;;;;;0.00;0.00;;;28.40;57.40;;;;;;3941234;30;20059;-66
2022/08/15 08:18:48;;;;;;;0.40;0.40;;;28.40;57.60;;;;;;3941279;30;20079;-66
2022/08/15 08:21:15;;;;;;;0.98;0.88;;;28.40;57.70;;;;;;3940641;30;20399;-66
2022/08/15 08:23:50;;;;;;;2.28;0.85;;;28.40;57.90;;;;;;3940563;30;20388;-66
2022/08/15 08:26:30;;;;;;;2.33;1.75;;;28.40;58.00;;;;;;3940949;30;20047;-66
2022/08/15 08:28:59;;;;;;;0.43;0.43;;;28.40;58.20;;;;;;3941144;30;20062;-66
2022/08/15 08:31:26;;;;;;;0.40;0.40;;;28.40;58.40;;;;;;3940723;30;20054;-66
2022/08/15 08:34:05;;;;;;;0.22;0.22;;;28.40;58.50;;;;;;3941013;30;20076;-66
2022/08/15 08:36:33;;;;;;;1.15;1.10;;;28.40;58.50;;;;;;3940633;30;20047;-66
2022/08/15 08:39:32;;;;;;;0.35;0.35;;;28.40;58.60;;;;;;3942235;30;20058;-66
2022/08/15 08:42:03;;;;;;;1.13;0.95;;;28.40;58.60;;;;;;3938325;30;20524;-66
2022/08/15 08:44:43;;;;;;;0.43;0.43;;;28.50;58.70;;;;;;3940326;30;20051;-66
2022/08/15 08:47:23;;;;;;;2.25;0.73;;;28.50;58.70;;;;;;3942237;30;20289;-66
2022/08/15 08:50:00;;;;;;;0.73;0.73;;;28.50;58.80;;;;;;3940140;30;20109;-66
2022/08/15 08:52:52;;;;;;;0.10;0.10;;;28.50;58.70;;;;;;3940064;30;20063;-66
2022/08/15 08:55:21;;;;;;;0.00;0.00;;;28.50;58.60;;;;;;3933911;30;20086;-66
2022/08/15 08:57:50;;;;;;;0.00;0.00;;;28.50;58.40;;;;;;3941670;30;20071;-66
2022/08/15 09:00:17;;;;;;;3.50;0.57;;;28.60;58.20;;;;;;3941905;30;20223;-66
2022/08/15 09:02:45;;;;;;;0.68;0.68;;;28.60;57.90;;;;;;3940299;30;20455;-66
2022/08/15 09:05:12;;;;;;;0.00;0.00;;;28.70;57.70;;;;;;3941877;30;20132;-66
2022/08/15 09:07:40;;;;;;;0.10;0.10;;;28.70;57.40;;;;;;3941547;30;20056;-66
2022/08/15 09:10:06;;;;;;;0.00;0.00;;;28.80;57.10;;;;;;3941429;30;20062;-66
2022/08/15 09:15:20;;;;;;;0.00;0.00;;;28.90;56.50;;;;;;3941574;30;20076;-66
2022/08/15 09:17:45;;;;;;;0.30;0.30;;;28.90;56.10;;;;;;3941567;30;20056;-66
2022/08/15 09:20:23;;;;;;;0.35;0.35;;;29.00;55.70;;;;;;3941373;30;20151;-66
2022/08/15 09:22:56;;;;;;;1.08;0.85;;;29.00;55.40;;;;;;3949714;30;20054;-67
2022/08/15 09:25:19;;;;;;;0.00;0.00;;;29.00;55.00;;;;;;3941368;30;20075;-66
2022/08/15 09:27:50;;;;;;;0.30;0.30;;;29.10;54.70;;;;;;3941375;30;20685;-66
2022/08/15 09:30:19;;;;;;;0.00;0.00;;;29.10;54.50;;;;;;3941223;30;20059;-66
2022/08/15 09:33:24;;;;;;;0.10;0.10;;;29.20;54.30;;;;;;3941681;29;20124;-66
2022/08/15 09:35:59;;;;;;;0.10;0.10;;;29.20;54.20;;;;;;3939543;29;20056;-66
2022/08/15 09:38:33;;;;;;;4.85;1.38;;;29.30;54.10;;;;;;3941432;30;20068;-66
2022/08/15 09:41:40;;;;;;;0.28;0.28;;;29.30;53.90;;;;;;3940000;30;20056;-66
2022/08/15 09:44:36;;;;;;;0.00;0.00;;;29.40;53.90;;;;;;3880130;30;20168;-63
2022/08/15 09:47:21;;;;;;;0.03;0.03;;;29.40;53.70;;;;;;3940922;30;20052;-63
2022/08/15 09:50:06;;;;;;;0.00;0.00;;;29.40;53.60;;;;;;3940974;30;20492;-63
2022/08/15 09:53:01;;;;;;;0.20;0.20;;;29.50;53.60;;;;;;3940720;30;20067;-63
2022/08/15 09:55:28;;;;;;;0.10;0.10;;;29.50;53.60;;;;;;3936860;30;20133;-63
2022/08/15 09:57:55;;;;;;;0.00;0.00;;;29.50;53.50;;;;;;3939143;30;20105;-63
2022/08/15 10:00:30;;;;;;;1.98;0.47;;;29.60;53.60;;;;;;3940295;30;20054;-64
2022/08/15 10:02:59;;;;;;;0.75;0.75;;;29.60;53.60;;;;;;3940737;30;20142;-66
2022/08/15 10:05:27;;;;;;;0.08;0.08;;;29.60;53.70;;;;;;3940636;30;20423;-66
2022/08/15 10:08:01;;;;;;;1.67;0.75;;;29.60;53.70;;;;;;3929306;30;20480;-67
2022/08/15 10:10:47;;;;;;;0.10;0.10;;;29.60;53.70;;;;;;3940838;30;20082;-67
2022/08/15 10:13:23;;;;;;;0.20;0.20;;;29.60;53.60;;;;;;3939667;30;20138;-66
2022/08/15 10:15:48;;;;;;;0.00;0.00;;;29.60;53.70;;;;;;3941220;30;20047;-65
2022/08/15 10:18:56;;;;;;;0.47;0.47;;;29.70;53.90;;;;;;3939682;30;20504;-65
2022/08/15 10:21:22;;;;;;;0.30;0.30;;;29.70;53.80;;;;;;3941085;30;20056;-65
2022/08/15 10:23:48;;;;;;;0.63;0.63;;;29.70;53.60;;;;;;3940718;30;20473;-65
2022/08/15 10:26:26;;;;;;;1.15;1.15;;;29.70;53.60;;;;;;3940767;30;20063;-62
2022/08/15 10:29:05;;;;;;;4.22;2.15;;;29.70;54.00;;;;;;3941177;30;20083;-63
2022/08/15 10:31:38;;;;;;;2.85;0.73;;;29.70;54.00;;;;;;3940953;30;20055;-63
2022/08/15 10:34:29;;;;;;;0.70;0.70;;;29.80;53.90;;;;;;3940864;30;20051;-65
2022/08/15 10:37:19;;;;;;;1.43;1.43;;;29.80;54.00;;;;;;3940517;30;20152;-62
2022/08/15 10:40:07;;;;;;;1.85;1.35;;;29.80;54.00;;;;;;3940736;30;20380;-63
2022/08/15 10:42:44;;;;;;;0.10;0.10;;;29.80;54.00;;;;;;3940096;30;20073;-66
2022/08/15 10:45:16;;;;;;;1.02;1.02;;;29.80;54.20;;;;;;3940202;30;20436;-67
2022/08/15 10:47:48;;;;;;;0.68;0.68;;;29.80;54.30;;;;;;3940781;30;20051;-68
2022/08/15 10:50:23;;;;;;;0.73;0.73;;;29.80;54.10;;;;;;3940836;30;20081;-66
2022/08/15 10:53:06;;;;;;;0.40;0.40;;;29.80;54.00;;;;;;3940904;30;20074;-65
2022/08/15 10:55:31;;;;;;;1.48;1.38;;;29.80;53.60;;;;;;3940442;30;20063;-66
2022/08/15 10:58:18;;;;;;;1.33;1.33;;;29.80;53.40;;;;;;3940065;30;20059;-66
2022/08/15 11:00:46;;;;;;;0.63;0.63;;;29.90;53.40;;;;;;3941013;30;20481;-66
2022/08/15 11:03:18;;;;;;;0.25;0.25;;;29.90;53.50;;;;;;3940816;30;20070;-66
2022/08/15 11:05:40;;;;;;;0.57;0.57;;;29.90;53.50;;;;;;3940317;30;20058;-65
2022/08/15 11:08:17;;;;;;;0.03;0.03;;;29.90;53.40;;;;;;3940972;30;20528;-63
2022/08/15 11:10:43;;;;;;;0.10;0.10;;;29.90;53.10;;;;;;3940001;30;20496;-63
2022/08/15 11:13:09;;;;;;;0.17;0.17;;;29.90;52.90;;;;;;3940078;30;20160;-63
2022/08/15 11:15:49;;;;;;;0.22;0.22;;;30.00;52.90;;;;;;3940751;30;20063;-63
2022/08/15 11:18:20;;;;;;;0.30;0.30;;;30.00;52.60;;;;;;3941692;30;20560;-66
2022/08/15 11:20:50;;;;;;;0.47;0.47;;;30.10;52.60;;;;;;3940709;30;20055;-66
2022/08/15 11:23:36;;;;;;;0.10;0.10;;;30.10;52.30;;;;;;3940803;30;20056;-66
2022/08/15 11:26:00;;;;;;;0.40;0.40;;;30.10;52.00;;;;;;3940127;30;20467;-66
2022/08/15 11:28:25;;;;;;;0.10;0.10;;;30.20;51.80;;;;;;3934022;29;20050;-67
2022/08/15 11:30:59;;;;;;;0.63;0.63;;;30.20;51.70;;;;;;3948968;29;20052;-66
2022/08/15 11:33:30;;;;;;;0.00;0.00;;;30.20;51.50;;;;;;3939814;30;20060;-66
2022/08/15 11:36:06;;;;;;;2.90;0.45;;;30.20;51.30;;;;;;3918226;30;20633;-66
2022/08/15 11:38:32;;;;;;;0.00;0.00;;;30.20;50.90;;;;;;3939066;30;20052;-66
2022/08/15 11:40:59;;;;;;;0.05;0.05;;;30.20;50.60;;;;;;3938473;30;20083;-66
2022/08/15 11:43:25;;;;;;;1.08;0.52;;;30.20;50.60;;;;;;3940221;30;20071;-66
2022/08/15 11:45:53;;;;;;;0.65;0.65;;;30.20;50.90;;;;;;3940483;30;20066;-66
2022/08/15 11:48:23;;;;;;;0.57;0.28;;;30.10;51.00;;;;;;3939492;30;20075;-66
2022/08/15 11:50:59;;;;;;;0.25;0.25;;;30.10;51.00;;;;;;3939157;30;20483;-67
2022/08/15 11:53:21;;;;;;;0.25;0.25;;;30.10;51.20;;;;;;3933712;30;20556;-66
2022/08/15 11:55:47;;;;;;;0.47;0.47;;;30.10;51.40;;;;;;3937437;30;20084;-66
2022/08/15 11:58:20;;;;;;;0.22;0.22;;;30.10;51.70;;;;;;3933181;30;20047;-66
2022/08/15 12:00:51;;;;;;;0.30;0.30;;;30.00;51.90;;;;;;3938565;30;20071;-66
2022/08/15 12:03:21;;;;;;;0.40;0.40;;;30.00;52.00;;;;;;3939729;30;20412;-67
2022/08/15 12:06:22;;;;;;;0.28;0.28;;;30.00;52.10;;;;;;3921020;30;20609;-66
2022/08/15 12:08:52;;;;;;;0.30;0.30;;;29.90;52.20;;;;;;3939493;30;20158;-66
2022/08/15 12:11:20;;;;;;;0.98;0.98;;;29.90;52.20;;;;;;3940009;30;20056;-63
2022/08/15 12:13:55;;;;;;;1.13;1.00;;;29.90;52.20;;;;;;3932557;30;20060;-65
2022/08/15 12:16:26;;;;;;;0.00;0.00;;;29.90;52.40;;;;;;3940383;30;20086;-63
2022/08/15 12:18:53;;;;;;;;;;;29.90;52.50;;;;;;3940728;30;20052;-67
2022/08/15 12:21:16;;;;;;;0.00;0.00;;;29.90;52.50;;;;;;3946873;29;19929;-67
2022/08/15 12:23:49;;;;;;;1.17;1.10;;;29.90;52.60;;;;;;3952388;29;20066;-67
2022/08/15 12:26:21;;;;;;;0.98;0.98;;;29.80;52.60;;;;;;3948024;30;20496;-66
2022/08/15 12:29:01;;;;;;;0.20;0.20;;;29.80;53.40;;;;;;3955727;29;20065;-67
2022/08/15 12:31:27;;;;;;;0.63;0.63;;;29.80;52.80;;;;;;3949868;30;20545;-66
2022/08/15 12:34:02;;;;;;;0.55;0.35;;;29.80;53.00;;;;;;3946606;29;20125;-67
2022/08/15 12:36:25;;;;;;;0.35;0.35;;;29.80;53.10;;;;;;3940764;30;20176;-66
2022/08/15 12:39:08;;;;;;;0.00;0.00;;;29.80;53.20;;;;;;3942892;30;20381;-67
2022/08/15 12:41:33;;;;;;;0.00;0.00;;;29.80;53.30;;;;;;3935069;30;20067;-66
2022/08/15 12:44:21;;;;;;;0.03;0.03;;;29.80;53.40;;;;;;3941222;30;20056;-66
2022/08/15 12:46:43;;;;;;;0.08;0.08;;;29.80;53.50;;;;;;3948190;30;20135;-66
2022/08/15 12:49:09;;;;;;;0.20;0.20;;;29.80;54.30;;;;;;3956719;30;20079;-67
2022/08/15 12:51:31;;;;;;;0.40;0.40;;;29.80;53.60;;;;;;3933372;30;20469;-70
2022/08/15 12:53:54;;;;;;;0.93;0.13;;;29.80;53.70;;;;;;3942647;30;20063;-67
2022/08/15 12:56:17;;;;;;;1.77;1.08;;;29.80;54.40;;;;;;3942102;30;20056;-63
2022/08/15 12:58:53;;;;;;;0.13;0.13;;;29.70;54.00;;;;;;3924214;30;20063;-63
2022/08/15 13:01:23;;;;;;;0.85;0.52;;;29.80;54.10;;;;;;3939879;29;20059;-64
2022/08/15 13:03:47;;;;;;;0.47;0.47;;;29.80;54.30;;;;;;3940560;29;20075;-64
2022/08/15 13:06:26;;;;;;;0.38;0.38;;;29.80;54.60;;;;;;3935197;30;20403;-64
2022/08/15 13:08:54;;;;;;;0.55;0.43;;;29.80;54.60;;;;;;3924985;29;20060;-64
2022/08/15 13:11:17;;;;;;;0.28;0.28;;;29.80;54.40;;;;;;3951665;29;20051;-64
2022/08/15 13:13:40;;;;;;;1.45;1.45;;;29.80;54.30;;;;;;3942414;30;20140;-66